Idaho Falls, Idaho
Current Conditions -  °F | °C
As of 5:53 AM on Thursday 30 Oct 2014 (Local Time) from KIDA Reporting Station
Few Clouds Few Clouds  
Wind Chill: -1°   Ceiling: Unl
Heat Index:   Visibility: 10mi
Dew Point: -2°   Wind: 5mph
Humidity: 79%   Direction: 10°N
Pressure: 30.29"   Gusts: NA
Location:  43.49°N, 112.04°W
Report Text: KIDA 301153Z AUTO 01004KT 10SM FEW090 01/M02 A3029 RMK AO2 SLP256 T00111022 10083 20006 51004
Loading
Personal Weather Stations






























Interactive Weather Map
Tropical Storm Tracking
New forecast layout! Learn more

10-Day Weather Forecast

Advertisements
Track Severe Weather on mobile